Fleetwood, New York
Current Conditions -  °F | °C
As of 5:51 PM on Thursday 27 Nov 2014 (Local Time) from KLGA Reporting Station
Overcast Overcast  
Wind Chill: 28°   Ceiling: 2400
Heat Index: 37°   Visibility: 10mi
Dew Point: 29°   Wind: 15mph
Humidity: 73%   Direction: 320°NW
Pressure: 30.02"   Gusts: NA
Location:  40.9243°N, 73.8256°W
Report Text: KLGA 272251Z 32013KT 10SM BKN024 OVC030 03/M02 A3002 RMK AO2 SLP166 T00281017
Loading
Personal Weather Stations






























Interactive Weather Map New forecast layout! Learn more

10-Day Weather Forecast

Advertisements
Track Severe Weather on mobile